createdAt,value
2022-08-03T00:00:51.913Z,95956.91
2022-08-03T00:06:04.851Z,95952.50
2022-08-03T00:11:07.354Z,95948.81
2022-08-03T00:16:11.136Z,95952.00
2022-08-03T00:21:13.152Z,95947.38
2022-08-03T00:26:17.499Z,95953.66
2022-08-03T00:31:40.108Z,95949.03
2022-08-03T00:36:45.022Z,95946.91
2022-08-03T00:41:46.707Z,95941.22
2022-08-03T00:46:48.794Z,95947.50
2022-08-03T00:51:50.996Z,95945.38
2022-08-03T00:56:59.575Z,95950.34
2022-08-03T01:02:02.729Z,95958.31
2022-08-03T01:08:00.519Z,95947.72
2022-08-03T01:14:02.335Z,95949.59
2022-08-03T01:19:13.271Z,95955.09
2022-08-03T01:24:29.986Z,95952.97
2022-08-03T01:30:03.978Z,95950.06
2022-08-03T01:35:12.872Z,95954.28
2022-08-03T01:40:16.242Z,95940.22
2022-08-03T01:45:19.698Z,95944.13
2022-08-03T01:50:24.987Z,95947.13
2022-08-03T01:55:32.078Z,95950.56
2022-08-03T02:00:36.802Z,95948.44
2022-08-03T02:05:43.055Z,95945.00
2022-08-03T02:10:46.329Z,95943.94
2022-08-03T02:15:49.220Z,95939.78
2022-08-03T02:20:57.096Z,95937.16
2022-08-03T02:26:10.827Z,95932.81
2022-08-03T02:31:23.113Z,95926.66
2022-08-03T02:36:37.717Z,95933.97
2022-08-03T02:41:47.274Z,95938.94
2022-08-03T02:46:53.527Z,95935.84
2022-08-03T02:51:57.388Z,95934.78
2022-08-03T02:57:02.324Z,95932.16
2022-08-03T03:02:04.606Z,95939.16
2022-08-03T03:07:07.046Z,95945.69
2022-08-03T03:12:13.409Z,95937.97
2022-08-03T03:17:17.111Z,95936.13
2022-08-03T03:22:19.772Z,95927.16
2022-08-03T03:27:24.087Z,95930.91
2022-08-03T03:32:30.167Z,95948.56
2022-08-03T03:37:41.082Z,95936.81
2022-08-03T03:42:44.323Z,95938.97
2022-08-03T03:47:46.314Z,95946.28
2022-08-03T03:52:58.746Z,95946.75
2022-08-03T03:58:16.867Z,95941.63
2022-08-03T04:03:18.540Z,95945.34
2022-08-03T04:08:42.023Z,95954.66
2022-08-03T04:14:23.765Z,95952.81
2022-08-03T04:19:47.806Z,95953.56
2022-08-03T04:25:01.435Z,95958.38
2022-08-03T04:30:07.360Z,95957.91
2022-08-03T04:35:09.487Z,95962.25
2022-08-03T04:40:14.842Z,95966.88
2022-08-03T04:45:19.334Z,95960.03
2022-08-03T04:50:22.244Z,95976.31
2022-08-03T04:55:38.532Z,95980.66
2022-08-03T05:00:40.409Z,95986.53
2022-08-03T05:05:49.022Z,95980.78
2022-08-03T05:10:52.074Z,95983.88
2022-08-03T05:15:53.990Z,95986.53
2022-08-03T05:20:55.618Z,95986.34
2022-08-03T05:25:57.366Z,95990.50
2022-08-03T05:30:59.065Z,95985.06
2022-08-03T05:36:04.306Z,95984.88
2022-08-03T05:41:21.731Z,95985.50
2022-08-03T05:46:26.430Z,95990.44
2022-08-03T05:51:28.983Z,95990.09
2022-08-03T05:56:33.793Z,95997.03
2022-08-03T06:01:35.517Z,95997.16
2022-08-03T06:06:37.218Z,95995.75
2022-08-03T06:11:39.525Z,95999.44
2022-08-03T06:16:42.114Z,96004.38
2022-08-03T06:21:43.783Z,96002.50
2022-08-03T06:26:47.023Z,96001.09
2022-08-03T06:31:48.780Z,95995.94
2022-08-03T06:36:52.469Z,96004.72
2022-08-03T06:41:54.403Z,96012.25
2022-08-03T06:46:57.443Z,96004.56
2022-08-03T06:52:03.050Z,96014.88
2022-08-03T06:57:08.425Z,96015.28
2022-08-03T07:02:10.526Z,96016.53
2022-08-03T07:07:12.857Z,96013.63
2022-08-03T07:12:14.680Z,96016.38
2022-08-03T07:17:16.514Z,96016.00
2022-08-03T07:22:18.254Z,96014.94
2022-08-03T07:27:20.452Z,96018.69
2022-08-03T07:32:23.162Z,96008.97
2022-08-03T07:37:25.537Z,96015.06
2022-08-03T07:42:28.966Z,95999.25
2022-08-03T07:47:36.095Z,96005.28
2022-08-03T07:52:50.623Z,96005.75
2022-08-03T07:58:16.499Z,96008.25
2022-08-03T08:03:22.145Z,96007.38
2022-08-03T08:08:23.785Z,96004.22
2022-08-03T08:13:25.770Z,96001.84
2022-08-03T08:18:39.781Z,95999.75
2022-08-03T08:23:48.631Z,96003.00
2022-08-03T08:28:59.048Z,96002.16
2022-08-03T08:34:05.605Z,95993.59
2022-08-03T08:39:07.520Z,95993.66
2022-08-03T08:44:18.218Z,95996.88
2022-08-03T08:49:23.419Z,96000.81
2022-08-03T08:54:26.030Z,95996.16
2022-08-03T08:59:48.204Z,96003.94
2022-08-03T09:04:51.025Z,95996.16
2022-08-03T09:10:10.141Z,95998.81
2022-08-03T09:15:29.256Z,96000.25
2022-08-03T09:20:36.989Z,95989.09
2022-08-03T09:25:43.801Z,95990.97
2022-08-03T09:30:59.568Z,95981.84
2022-08-03T09:36:03.016Z,95982.97
2022-08-03T09:41:18.351Z,95981.22
2022-08-03T09:46:20.158Z,95982.25
2022-08-03T09:52:28.946Z,95985.66
2022-08-03T09:56:47.708Z,95981.34
2022-08-03T10:01:49.424Z,95979.56
2022-08-03T10:07:07.747Z,95968.59
2022-08-03T10:12:12.358Z,95970.13
2022-08-03T10:17:14.288Z,95966.28
2022-08-03T10:22:21.744Z,95964.25
2022-08-03T10:27:24.367Z,95956.81
2022-08-03T10:32:31.752Z,95945.53
2022-08-03T10:37:56.540Z,95944.97
2022-08-03T10:43:17.691Z,95946.00
2022-08-03T10:48:20.242Z,95948.78
2022-08-03T10:53:54.229Z,95949.50
2022-08-03T10:58:57.440Z,95940.72
2022-08-03T11:03:59.690Z,95930.66
2022-08-03T11:09:10.447Z,95926.28
2022-08-03T11:14:15.339Z,95925.38
2022-08-03T11:19:22.553Z,95932.69
2022-08-03T11:24:54.299Z,95922.56
2022-08-03T11:29:59.262Z,95919.56
2022-08-03T11:35:12.309Z,95919.25
2022-08-03T11:40:39.180Z,95910.94
2022-08-03T11:45:57.796Z,95906.78
2022-08-03T11:51:00.796Z,95906.94
2022-08-03T11:56:03.571Z,95916.25
2022-08-03T12:01:08.263Z,95907.34
2022-08-03T12:06:12.416Z,95910.75
2022-08-03T12:11:15.892Z,95894.22
2022-08-03T12:16:23.961Z,95893.28
2022-08-03T12:21:26.399Z,95887.03
2022-08-03T12:26:30.098Z,95889.72
2022-08-03T12:31:31.766Z,95898.00
2022-08-03T12:36:36.042Z,95879.38
2022-08-03T12:41:40.912Z,95879.97
2022-08-03T12:46:47.704Z,95884.16
2022-08-03T12:51:49.776Z,95877.06
2022-08-03T12:57:10.308Z,95871.00
2022-08-03T13:02:17.675Z,95861.91
2022-08-03T13:07:21.226Z,95869.84
2022-08-03T13:12:28.783Z,95869.84
2022-08-03T13:17:30.533Z,95874.34
2022-08-03T13:22:35.288Z,95861.06
2022-08-03T13:28:04.864Z,95856.69
2022-08-03T13:33:00.681Z,95855.84
2022-08-03T13:38:02.603Z,95843.50
2022-08-03T13:43:05.704Z,95852.78
2022-08-03T13:48:09.652Z,95839.94
2022-08-03T13:53:11.446Z,95840.69
2022-08-03T13:58:13.697Z,95838.41
2022-08-03T14:03:15.570Z,95841.19
2022-08-03T14:08:17.514Z,95830.06
2022-08-03T14:13:19.117Z,95828.50
2022-08-03T14:18:29.118Z,95814.09
2022-08-03T14:23:38.181Z,95828.19
2022-08-03T14:28:40.607Z,95818.31
2022-08-03T14:33:42.484Z,95823.72
2022-08-03T14:38:44.277Z,95816.03
2022-08-03T14:44:01.695Z,95817.44
2022-08-03T14:50:35.966Z,95821.13
2022-08-03T14:54:30.891Z,95820.94
2022-08-03T14:59:56.104Z,95817.41
2022-08-03T15:04:54.390Z,95809.91
2022-08-03T15:09:56.038Z,95797.06
2022-08-03T15:14:58.529Z,95796.94
2022-08-03T15:20:23.347Z,95795.50
2022-08-03T15:26:28.963Z,95792.91
2022-08-03T15:30:43.814Z,95782.91
2022-08-03T15:35:47.775Z,95792.81
2022-08-03T15:40:49.619Z,95785.03
2022-08-03T15:46:26.505Z,95784.69
2022-08-03T15:51:13.947Z,95772.97
2022-08-03T15:56:18.709Z,95776.97
2022-08-03T16:01:21.649Z,95786.09
2022-08-03T16:06:29.714Z,95778.50
2022-08-03T16:11:37.377Z,95774.13
2022-08-03T16:16:41.106Z,95778.28
2022-08-03T16:21:48.788Z,95773.53
2022-08-03T16:26:51.895Z,95771.22
2022-08-03T16:31:53.490Z,95768.38
2022-08-03T16:36:55.082Z,95765.50
2022-08-03T16:42:01.327Z,95759.63
2022-08-03T16:47:03.840Z,95766.09
2022-08-03T16:52:07.173Z,95764.19
2022-08-03T16:57:08.868Z,95768.91
2022-08-03T17:02:21.173Z,95776.69
2022-08-03T17:07:29.532Z,95773.84
2022-08-03T17:12:31.958Z,95775.34
2022-08-03T17:17:43.006Z,95773.66
2022-08-03T17:23:34.577Z,95773.47
2022-08-03T17:28:50.201Z,95771.19
2022-08-03T17:33:55.462Z,95776.53
2022-08-03T17:38:59.621Z,95780.69
2022-08-03T17:44:15.466Z,95781.09
2022-08-03T17:49:28.468Z,95781.84
2022-08-03T17:55:55.386Z,95789.84
2022-08-03T18:00:32.840Z,95788.16
2022-08-03T18:06:12.391Z,95787.81
2022-08-03T18:11:09.581Z,95796.13
2022-08-03T18:16:24.839Z,95792.28
2022-08-03T18:22:02.143Z,95794.31
2022-08-03T18:26:53.055Z,95794.75
2022-08-03T18:32:03.798Z,95792.50
2022-08-03T18:37:07.759Z,95797.66
2022-08-03T18:42:19.384Z,95800.84
2022-08-03T18:47:51.792Z,95802.53
2022-08-03T18:54:02.383Z,95799.25
2022-08-03T18:59:17.160Z,95803.19
2022-08-03T19:04:33.615Z,95810.84
2022-08-03T19:09:56.241Z,95803.06
2022-08-03T19:15:12.643Z,95807.34
2022-08-03T19:20:14.780Z,95814.44
2022-08-03T19:25:18.695Z,95818.34
2022-08-03T19:30:38.952Z,95825.59
2022-08-03T19:35:55.451Z,95817.97
2022-08-03T19:41:03.743Z,95815.41
2022-08-03T19:46:11.505Z,95824.41
2022-08-03T19:51:56.632Z,95815.19
2022-08-03T19:56:58.224Z,95815.97
2022-08-03T20:02:05.032Z,95814.13
2022-08-03T20:07:20.633Z,95819.47
2022-08-03T20:17:58.625Z,95827.00
2022-08-03T20:23:06.892Z,95809.72
2022-08-03T20:28:15.994Z,95809.81
2022-08-03T20:33:19.534Z,95812.03
2022-08-03T20:38:35.045Z,95814.19
2022-08-03T20:43:52.525Z,95815.59
2022-08-03T20:48:58.800Z,95812.34
2022-08-03T20:54:05.067Z,95817.56
2022-08-03T20:59:23.557Z,95807.38
2022-08-03T21:04:26.316Z,95801.31
2022-08-03T21:09:42.302Z,95803.72
2022-08-03T21:15:15.882Z,95809.69
2022-08-03T21:20:42.052Z,95807.94
2022-08-03T21:25:44.321Z,95808.28
2022-08-03T21:30:46.736Z,95809.34
2022-08-03T21:35:49.978Z,95805.56
2022-08-03T21:40:53.351Z,95805.38
2022-08-03T21:46:00.965Z,95814.84
2022-08-03T21:51:03.830Z,95806.19
2022-08-03T21:56:11.564Z,95810.34
2022-08-03T22:01:14.163Z,95813.69
2022-08-03T22:06:19.514Z,95812.16
2022-08-03T22:11:22.102Z,95802.75
2022-08-03T22:16:24.083Z,95804.56
2022-08-03T22:21:36.128Z,95800.78
2022-08-03T22:26:40.266Z,95799.72
2022-08-03T22:31:58.381Z,95801.81
2022-08-03T22:37:02.891Z,95811.53
2022-08-03T22:42:05.478Z,95810.03
2022-08-03T22:47:07.365Z,95807.75
2022-08-03T22:52:11.939Z,95809.78
2022-08-03T22:57:14.295Z,95810.81
2022-08-03T23:02:21.255Z,95819.78
2022-08-03T23:07:30.544Z,95818.75
2022-08-03T23:12:35.006Z,95829.25
2022-08-03T23:17:57.386Z,95821.03
2022-08-03T23:23:02.497Z,95835.09
2022-08-03T23:28:10.226Z,95838.16
2022-08-03T23:33:13.764Z,95834.81
2022-08-03T23:38:22.779Z,95831.00
2022-08-03T23:43:52.192Z,95833.50
2022-08-03T23:48:56.436Z,95834.00
2022-08-03T23:54:17.202Z,95832.44
2022-08-03T23:59:35.087Z,95828.84
